sensor_id;sensor_type;location;lat;lon;timestamp;pressure;altitude;pressure_sealevel;temperature;humidity
46718;BME280;32448;44.960;-0.698;2023-09-07T00:01:06;101286.81;;;21.13;100.00
46718;BME280;32448;44.960;-0.698;2023-09-07T00:03:36;101292.09;;;21.14;100.00
46718;BME280;32448;44.960;-0.698;2023-09-07T00:06:08;101291.28;;;21.11;100.00
46718;BME280;32448;44.960;-0.698;2023-09-07T00:08:36;101285.22;;;21.04;100.00
46718;BME280;32448;44.960;-0.698;2023-09-07T00:11:03;101287.09;;;20.97;100.00
46718;BME280;32448;44.960;-0.698;2023-09-07T00:13:31;101290.69;;;20.95;100.00
46718;BME280;32448;44.960;-0.698;2023-09-07T00:16:01;101288.06;;;20.92;100.00
46718;BME280;32448;44.960;-0.698;2023-09-07T00:18:32;101296.97;;;20.89;100.00
46718;BME280;32448;44.960;-0.698;2023-09-07T00:21:00;101286.41;;;20.86;100.00
46718;BME280;32448;44.960;-0.698;2023-09-07T00:23:28;101282.06;;;20.81;100.00
46718;BME280;32448;44.960;-0.698;2023-09-07T00:25:55;101274.19;;;20.76;100.00
46718;BME280;32448;44.960;-0.698;2023-09-07T00:28:22;101283.09;;;20.72;100.00
46718;BME280;32448;44.960;-0.698;2023-09-07T00:30:49;101278.69;;;20.71;100.00
46718;BME280;32448;44.960;-0.698;2023-09-07T00:33:16;101276.06;;;20.69;100.00
46718;BME280;32448;44.960;-0.698;2023-09-07T00:35:43;101281.34;;;20.71;100.00
46718;BME280;32448;44.960;-0.698;2023-09-07T00:38:11;101276.97;;;20.68;100.00
46718;BME280;32448;44.960;-0.698;2023-09-07T00:40:42;101278.81;;;20.65;100.00
46718;BME280;32448;44.960;-0.698;2023-09-07T00:43:09;101266.44;;;20.62;100.00
46718;BME280;32448;44.960;-0.698;2023-09-07T00:45:36;101267.38;;;20.58;100.00
46718;BME280;32448;44.960;-0.698;2023-09-07T00:48:04;101268.25;;;20.60;100.00
46718;BME280;32448;44.960;-0.698;2023-09-07T00:50:31;101268.28;;;20.57;100.00
46718;BME280;32448;44.960;-0.698;2023-09-07T00:52:59;101259.50;;;20.54;100.00
46718;BME280;32448;44.960;-0.698;2023-09-07T00:55:27;101260.41;;;20.53;100.00
46718;BME280;32448;44.960;-0.698;2023-09-07T00:57:54;101264.03;;;20.47;100.00
46718;BME280;32448;44.960;-0.698;2023-09-07T01:00:22;101254.25;;;20.51;100.00
46718;BME280;32448;44.960;-0.698;2023-09-07T01:02:49;101262.22;;;20.51;100.00
46718;BME280;32448;44.960;-0.698;2023-09-07T01:05:17;101261.34;;;20.49;100.00
46718;BME280;32448;44.960;-0.698;2023-09-07T01:07:46;101274.66;;;20.47;100.00
46718;BME280;32448;44.960;-0.698;2023-09-07T01:10:14;101262.41;;;20.37;100.00
46718;BME280;32448;44.960;-0.698;2023-09-07T01:12:42;101266.84;;;20.37;100.00
46718;BME280;32448;44.960;-0.698;2023-09-07T01:15:09;101270.38;;;20.37;100.00
46718;BME280;32448;44.960;-0.698;2023-09-07T01:17:37;101265.06;;;20.37;100.00
46718;BME280;32448;44.960;-0.698;2023-09-07T01:20:05;101266.84;;;20.33;100.00
46718;BME280;32448;44.960;-0.698;2023-09-07T01:22:36;101280.13;;;20.33;100.00
46718;BME280;32448;44.960;-0.698;2023-09-07T01:25:04;101268.69;;;20.31;100.00
46718;BME280;32448;44.960;-0.698;2023-09-07T01:27:34;101263.44;;;20.25;100.00
46718;BME280;32448;44.960;-0.698;2023-09-07T01:30:01;101270.56;;;20.23;100.00
46718;BME280;32448;44.960;-0.698;2023-09-07T01:32:30;101265.25;;;20.23;100.00
46718;BME280;32448;44.960;-0.698;2023-09-07T01:34:57;101265.22;;;20.25;100.00
46718;BME280;32448;44.960;-0.698;2023-09-07T01:37:25;101265.22;;;20.26;100.00
46718;BME280;32448;44.960;-0.698;2023-09-07T01:39:52;101262.56;;;20.26;100.00
46718;BME280;32448;44.960;-0.698;2023-09-07T01:42:19;101262.59;;;20.23;100.00
46718;BME280;32448;44.960;-0.698;2023-09-07T01:44:48;101257.38;;;20.19;100.00
46718;BME280;32448;44.960;-0.698;2023-09-07T01:47:16;101260.09;;;20.13;100.00
46718;BME280;32448;44.960;-0.698;2023-09-07T01:49:43;101257.50;;;20.10;100.00
46718;BME280;32448;44.960;-0.698;2023-09-07T01:52:10;101256.56;;;20.11;100.00
46718;BME280;32448;44.960;-0.698;2023-09-07T01:54:37;101253.13;;;20.06;100.00
46718;BME280;32448;44.960;-0.698;2023-09-07T01:57:05;101255.81;;;20.04;100.00
46718;BME280;32448;44.960;-0.698;2023-09-07T01:59:33;101256.69;;;20.03;100.00
46718;BME280;32448;44.960;-0.698;2023-09-07T02:02:02;101257.56;;;20.04;100.00
46718;BME280;32448;44.960;-0.698;2023-09-07T02:04:29;101265.63;;;19.99;100.00
46718;BME280;32448;44.960;-0.698;2023-09-07T02:06:56;101266.53;;;19.96;100.00
46718;BME280;32448;44.960;-0.698;2023-09-07T02:09:24;101260.34;;;19.97;100.00
46718;BME280;32448;44.960;-0.698;2023-09-07T02:11:51;101258.56;;;19.98;100.00
46718;BME280;32448;44.960;-0.698;2023-09-07T02:14:18;101267.44;;;19.94;100.00
46718;BME280;32448;44.960;-0.698;2023-09-07T02:16:45;101261.28;;;19.92;100.00
46718;BME280;32448;44.960;-0.698;2023-09-07T02:19:12;101254.19;;;19.92;100.00
46718;BME280;32448;44.960;-0.698;2023-09-07T02:21:40;101252.41;;;19.93;100.00
46718;BME280;32448;44.960;-0.698;2023-09-07T02:24:07;101247.13;;;19.91;100.00
46718;BME280;32448;44.960;-0.698;2023-09-07T02:26:34;101256.13;;;19.81;100.00
46718;BME280;32448;44.960;-0.698;2023-09-07T02:29:01;101248.19;;;19.78;100.00
46718;BME280;32448;44.960;-0.698;2023-09-07T02:31:32;101252.63;;;19.78;100.00
46718;BME280;32448;44.960;-0.698;2023-09-07T02:33:59;101256.19;;;19.77;100.00
46718;BME280;32448;44.960;-0.698;2023-09-07T02:36:27;101255.38;;;19.70;100.00
46718;BME280;32448;44.960;-0.698;2023-09-07T02:38:54;101262.44;;;19.71;100.00
46718;BME280;32448;44.960;-0.698;2023-09-07T02:41:21;101258.88;;;19.74;100.00
46718;BME280;32448;44.960;-0.698;2023-09-07T02:43:48;101260.69;;;19.70;100.00
46718;BME280;32448;44.960;-0.698;2023-09-07T02:46:15;101259.00;;;19.66;100.00
46718;BME280;32448;44.960;-0.698;2023-09-07T02:48:43;101256.38;;;19.61;100.00
46718;BME280;32448;44.960;-0.698;2023-09-07T02:51:10;101259.91;;;19.63;100.00
46718;BME280;32448;44.960;-0.698;2023-09-07T02:53:38;101259.88;;;19.65;100.00
46718;BME280;32448;44.960;-0.698;2023-09-07T02:56:05;101261.66;;;19.63;100.00
46718;BME280;32448;44.960;-0.698;2023-09-07T02:58:32;101257.31;;;19.57;100.00
46718;BME280;32448;44.960;-0.698;2023-09-07T03:01:05;101253.84;;;19.52;100.00
46718;BME280;32448;44.960;-0.698;2023-09-07T03:03:32;101253.84;;;19.54;100.00
46718;BME280;32448;44.960;-0.698;2023-09-07T03:06:07;101261.81;;;19.51;100.00
46718;BME280;32448;44.960;-0.698;2023-09-07T03:08:35;101260.94;;;19.50;100.00
46718;BME280;32448;44.960;-0.698;2023-09-07T03:11:05;101262.78;;;19.39;100.00
46718;BME280;32448;44.960;-0.698;2023-09-07T03:13:32;101259.25;;;19.42;100.00
46718;BME280;32448;44.960;-0.698;2023-09-07T03:16:00;101260.03;;;19.47;100.00
46718;BME280;32448;44.960;-0.698;2023-09-07T03:18:28;101265.41;;;19.44;100.00
46718;BME280;32448;44.960;-0.698;2023-09-07T03:20:57;101261.03;;;19.40;100.00
46718;BME280;32448;44.960;-0.698;2023-09-07T03:23:29;101263.81;;;19.26;100.00
46718;BME280;32448;44.960;-0.698;2023-09-07T03:25:57;101264.69;;;19.30;100.00
46718;BME280;32448;44.960;-0.698;2023-09-07T03:28:26;101264.66;;;19.31;100.00
46718;BME280;32448;44.960;-0.698;2023-09-07T03:30:53;101265.53;;;19.32;100.00
46718;BME280;32448;44.960;-0.698;2023-09-07T03:33:21;101262.91;;;19.30;100.00
46718;BME280;32448;44.960;-0.698;2023-09-07T03:35:48;101258.47;;;19.31;100.00
46718;BME280;32448;44.960;-0.698;2023-09-07T03:38:15;101256.75;;;19.28;100.00
46718;BME280;32448;44.960;-0.698;2023-09-07T03:40:42;101248.69;;;19.34;100.00
46718;BME280;32448;44.960;-0.698;2023-09-07T03:43:09;101252.31;;;19.28;100.00
46718;BME280;32448;44.960;-0.698;2023-09-07T03:45:37;101259.44;;;19.23;100.00
46718;BME280;32448;44.960;-0.698;2023-09-07T03:48:04;101254.22;;;19.16;100.00
46718;BME280;32448;44.960;-0.698;2023-09-07T03:50:32;101261.38;;;19.09;100.00
46718;BME280;32448;44.960;-0.698;2023-09-07T03:52:59;101248.91;;;19.16;100.00
46718;BME280;32448;44.960;-0.698;2023-09-07T03:55:26;101268.38;;;19.12;100.00
46718;BME280;32448;44.960;-0.698;2023-09-07T03:57:54;101270.25;;;19.01;100.00
46718;BME280;32448;44.960;-0.698;2023-09-07T04:00:25;101266.72;;;19.02;100.00
46718;BME280;32448;44.960;-0.698;2023-09-07T04:02:52;101266.72;;;19.00;100.00
46718;BME280;32448;44.960;-0.698;2023-09-07T04:05:21;101272.97;;;18.96;100.00
46718;BME280;32448;44.960;-0.698;2023-09-07T04:07:50;101266.81;;;18.94;100.00
46718;BME280;32448;44.960;-0.698;2023-09-07T04:10:17;101267.69;;;18.91;100.00
46718;BME280;32448;44.960;-0.698;2023-09-07T04:12:46;101260.69;;;18.87;100.00
46718;BME280;32448;44.960;-0.698;2023-09-07T04:15:13;101265.06;;;18.90;100.00
46718;BME280;32448;44.960;-0.698;2023-09-07T04:17:40;101266.88;;;18.86;100.00
46718;BME280;32448;44.960;-0.698;2023-09-07T04:20:08;101261.53;;;18.91;100.00
46718;BME280;32448;44.960;-0.698;2023-09-07T04:22:36;101259.84;;;18.81;100.00
46718;BME280;32448;44.960;-0.698;2023-09-07T04:25:03;101265.22;;;18.76;100.00
46718;BME280;32448;44.960;-0.698;2023-09-07T04:27:30;101259.03;;;18.74;100.00
46718;BME280;32448;44.960;-0.698;2023-09-07T04:29:58;101258.19;;;18.71;100.00
46718;BME280;32448;44.960;-0.698;2023-09-07T04:32:26;101261.69;;;18.76;100.00
46718;BME280;32448;44.960;-0.698;2023-09-07T04:34:57;101267.88;;;18.72;100.00
46718;BME280;32448;44.960;-0.698;2023-09-07T04:37:26;101252.88;;;18.71;100.00
46718;BME280;32448;44.960;-0.698;2023-09-07T04:39:53;101263.50;;;18.68;100.00
46718;BME280;32448;44.960;-0.698;2023-09-07T04:42:23;101265.31;;;18.61;100.00
46718;BME280;32448;44.960;-0.698;2023-09-07T04:44:54;101267.09;;;18.59;100.00
46718;BME280;32448;44.960;-0.698;2023-09-07T04:47:21;101270.63;;;18.60;100.00
46718;BME280;32448;44.960;-0.698;2023-09-07T04:49:49;101273.28;;;18.61;100.00
46718;BME280;32448;44.960;-0.698;2023-09-07T04:52:19;101278.56;;;18.61;100.00
46718;BME280;32448;44.960;-0.698;2023-09-07T04:54:46;101278.63;;;18.50;100.00
46718;BME280;32448;44.960;-0.698;2023-09-07T04:57:17;101278.63;;;18.50;100.00
46718;BME280;32448;44.960;-0.698;2023-09-07T04:59:45;101283.97;;;18.43;100.00
46718;BME280;32448;44.960;-0.698;2023-09-07T05:02:14;101276.94;;;18.40;100.00
46718;BME280;32448;44.960;-0.698;2023-09-07T05:04:41;101281.34;;;18.37;100.00
46718;BME280;32448;44.960;-0.698;2023-09-07T05:07:10;101282.25;;;18.37;100.00
46718;BME280;32448;44.960;-0.698;2023-09-07T05:09:37;101284.00;;;18.37;100.00
46718;BME280;32448;44.960;-0.698;2023-09-07T05:12:05;101290.16;;;18.39;100.00
46718;BME280;32448;44.960;-0.698;2023-09-07T05:14:32;101288.41;;;18.42;100.00
46718;BME280;32448;44.960;-0.698;2023-09-07T05:16:59;101291.09;;;18.33;100.00
46718;BME280;32448;44.960;-0.698;2023-09-07T05:19:27;101284.06;;;18.26;100.00
46718;BME280;32448;44.960;-0.698;2023-09-07T05:21:55;101292.06;;;18.20;100.00
46718;BME280;32448;44.960;-0.698;2023-09-07T05:24:22;101289.38;;;18.25;100.00
46718;BME280;32448;44.960;-0.698;2023-09-07T05:26:50;101290.28;;;18.22;100.00
46718;BME280;32448;44.960;-0.698;2023-09-07T05:29:18;101281.47;;;18.22;100.00
46718;BME280;32448;44.960;-0.698;2023-09-07T05:31:47;101290.31;;;18.21;100.00
46718;BME280;32448;44.960;-0.698;2023-09-07T05:34:14;101294.72;;;18.15;100.00
46718;BME280;32448;44.960;-0.698;2023-09-07T05:36:42;101292.09;;;18.15;100.00
46718;BME280;32448;44.960;-0.698;2023-09-07T05:39:10;101300.09;;;18.03;100.00
46718;BME280;32448;44.960;-0.698;2023-09-07T05:41:37;101303.63;;;18.02;100.00
46718;BME280;32448;44.960;-0.698;2023-09-07T05:44:05;101300.94;;;18.08;100.00
46718;BME280;32448;44.960;-0.698;2023-09-07T05:46:32;101300.06;;;18.06;100.00
46718;BME280;32448;44.960;-0.698;2023-09-07T05:48:59;101305.38;;;18.03;100.00
46718;BME280;32448;44.960;-0.698;2023-09-07T05:51:27;101294.78;;;18.05;100.00
46718;BME280;32448;44.960;-0.698;2023-09-07T05:53:55;101301.84;;;18.09;100.00
46718;BME280;32448;44.960;-0.698;2023-09-07T05:56:22;101303.59;;;18.10;100.00
46718;BME280;32448;44.960;-0.698;2023-09-07T05:58:51;101297.41;;;18.09;100.00
46718;BME280;32448;44.960;-0.698;2023-09-07T06:01:19;101307.09;;;18.12;100.00
46718;BME280;32448;44.960;-0.698;2023-09-07T06:03:47;101304.44;;;18.13;100.00
46718;BME280;32448;44.960;-0.698;2023-09-07T06:06:14;101309.78;;;18.10;100.00
46718;BME280;32448;44.960;-0.698;2023-09-07T06:08:41;101308.84;;;18.13;100.00
46718;BME280;32448;44.960;-0.698;2023-09-07T06:11:09;101314.13;;;18.16;100.00
46718;BME280;32448;44.960;-0.698;2023-09-07T06:13:36;101314.13;;;18.16;100.00
46718;BME280;32448;44.960;-0.698;2023-09-07T06:16:03;101321.19;;;18.20;100.00
46718;BME280;32448;44.960;-0.698;2023-09-07T06:18:31;101329.94;;;18.25;100.00
46718;BME280;32448;44.960;-0.698;2023-09-07T06:20:58;101329.94;;;18.28;100.00
46718;BME280;32448;44.960;-0.698;2023-09-07T06:23:26;101335.22;;;18.28;100.00
46718;BME280;32448;44.960;-0.698;2023-09-07T06:25:53;101326.41;;;18.31;100.00
46718;BME280;32448;44.960;-0.698;2023-09-07T06:28:20;101327.28;;;18.31;100.00
46718;BME280;32448;44.960;-0.698;2023-09-07T06:30:47;101335.19;;;18.37;100.00
46718;BME280;32448;44.960;-0.698;2023-09-07T06:33:16;101329.94;;;18.33;100.00
46718;BME280;32448;44.960;-0.698;2023-09-07T06:35:44;101333.41;;;18.41;100.00
46718;BME280;32448;44.960;-0.698;2023-09-07T06:38:12;101338.63;;;18.51;100.00
46718;BME280;32448;44.960;-0.698;2023-09-07T06:40:47;101334.19;;;18.58;100.00
46718;BME280;32448;44.960;-0.698;2023-09-07T06:43:14;101330.63;;;18.64;100.00
46718;BME280;32448;44.960;-0.698;2023-09-07T06:45:41;101328.84;;;18.66;100.00
46718;BME280;32448;44.960;-0.698;2023-09-07T06:48:09;101327.03;;;18.74;100.00
46718;BME280;32448;44.960;-0.698;2023-09-07T06:50:36;101325.19;;;18.79;100.00
46718;BME280;32448;44.960;-0.698;2023-09-07T06:53:04;101325.16;;;18.86;100.00
46718;BME280;32448;44.960;-0.698;2023-09-07T06:55:31;101318.91;;;18.94;100.00
46718;BME280;32448;44.960;-0.698;2023-09-07T06:57:58;101331.25;;;18.99;100.00
46718;BME280;32448;44.960;-0.698;2023-09-07T07:00:27;101327.63;;;19.05;100.00
46718;BME280;32448;44.960;-0.698;2023-09-07T07:02:55;101326.72;;;19.10;100.00
46718;BME280;32448;44.960;-0.698;2023-09-07T07:05:25;101328.44;;;19.14;100.00
46718;BME280;32448;44.960;-0.698;2023-09-07T07:07:55;101328.41;;;19.20;100.00
46718;BME280;32448;44.960;-0.698;2023-09-07T07:10:23;101328.31;;;19.26;100.00
46718;BME280;32448;44.960;-0.698;2023-09-07T07:12:50;101339.78;;;19.32;100.00
46718;BME280;32448;44.960;-0.698;2023-09-07T07:15:18;101331.75;;;19.38;100.00
46718;BME280;32448;44.960;-0.698;2023-09-07T07:17:46;101344.03;;;19.45;100.00
46718;BME280;32448;44.960;-0.698;2023-09-07T07:20:13;101346.56;;;19.60;100.00
46718;BME280;32448;44.960;-0.698;2023-09-07T07:22:40;101355.38;;;19.63;100.00
46718;BME280;32448;44.960;-0.698;2023-09-07T07:25:10;101348.25;;;19.67;100.00
46718;BME280;32448;44.960;-0.698;2023-09-07T07:27:37;101351.72;;;19.75;100.00
46718;BME280;32448;44.960;-0.698;2023-09-07T07:30:05;101359.56;;;19.84;100.00
46718;BME280;32448;44.960;-0.698;2023-09-07T07:32:33;101359.44;;;19.92;100.00
46718;BME280;32448;44.960;-0.698;2023-09-07T07:35:00;101356.69;;;20.01;100.00
46718;BME280;32448;44.960;-0.698;2023-09-07T07:37:28;101355.63;;;20.14;100.00
46718;BME280;32448;44.960;-0.698;2023-09-07T07:39:55;101357.34;;;20.18;100.00
46718;BME280;32448;44.960;-0.698;2023-09-07T07:42:23;101356.44;;;20.21;100.00
46718;BME280;32448;44.960;-0.698;2023-09-07T07:44:50;101353.69;;;20.28;100.00
46718;BME280;32448;44.960;-0.698;2023-09-07T07:47:18;101346.47;;;20.41;100.00
46718;BME280;32448;44.960;-0.698;2023-09-07T07:49:46;101343.69;;;20.47;100.00
46718;BME280;32448;44.960;-0.698;2023-09-07T07:52:13;101335.69;;;20.52;100.00
46718;BME280;32448;44.960;-0.698;2023-09-07T07:54:40;101342.59;;;20.62;100.00
46718;BME280;32448;44.960;-0.698;2023-09-07T07:57:09;101338.91;;;20.72;100.00
46718;BME280;32448;44.960;-0.698;2023-09-07T07:59:36;101328.78;;;20.95;100.00
46718;BME280;32448;44.960;-0.698;2023-09-07T08:02:04;101334.78;;;21.06;100.00
46718;BME280;32448;44.960;-0.698;2023-09-07T08:04:33;101345.25;;;21.19;100.00
46718;BME280;32448;44.960;-0.698;2023-09-07T08:07:02;101333.59;;;21.24;100.00
46718;BME280;32448;44.960;-0.698;2023-09-07T08:09:34;101345.81;;;21.36;100.00
46718;BME280;32448;44.960;-0.698;2023-09-07T08:12:02;101343.72;;;21.53;100.00
46718;BME280;32448;44.960;-0.698;2023-09-07T08:14:31;101341.81;;;21.60;100.00
46718;BME280;32448;44.960;-0.698;2023-09-07T08:17:00;101341.59;;;21.72;100.00
46718;BME280;32448;44.960;-0.698;2023-09-07T08:19:28;101338.75;;;21.79;100.00
46718;BME280;32448;44.960;-0.698;2023-09-07T08:21:58;101340.25;;;21.93;100.00
46718;BME280;32448;44.960;-0.698;2023-09-07T08:24:25;101327.41;;;22.14;100.00
46718;BME280;32448;44.960;-0.698;2023-09-07T08:26:53;101327.97;;;22.29;100.00
46718;BME280;32448;44.960;-0.698;2023-09-07T08:29:22;101323.06;;;22.49;100.00
46718;BME280;32448;44.960;-0.698;2023-09-07T08:31:53;101320.13;;;22.61;100.00
46718;BME280;32448;44.960;-0.698;2023-09-07T08:34:24;101318.16;;;22.68;100.00
46718;BME280;32448;44.960;-0.698;2023-09-07T08:36:52;101324.13;;;22.80;100.00
46718;BME280;32448;44.960;-0.698;2023-09-07T08:39:20;101324.72;;;22.92;100.00
46718;BME280;32448;44.960;-0.698;2023-09-07T08:41:47;101325.31;;;23.03;100.00
46718;BME280;32448;44.960;-0.698;2023-09-07T08:44:26;101319.69;;;23.15;100.00
46718;BME280;32448;44.960;-0.698;2023-09-07T08:46:54;101327.44;;;23.24;100.00
46718;BME280;32448;44.960;-0.698;2023-09-07T08:49:22;101325.44;;;23.32;100.00
46718;BME280;32448;44.960;-0.698;2023-09-07T08:51:52;101331.34;;;23.43;100.00
46718;BME280;32448;44.960;-0.698;2023-09-07T08:54:20;101329.97;;;23.63;100.00
46718;BME280;32448;44.960;-0.698;2023-09-07T08:56:49;101329.78;;;23.69;100.00
46718;BME280;32448;44.960;-0.698;2023-09-07T08:59:17;101333.78;;;23.85;100.00
46718;BME280;32448;44.960;-0.698;2023-09-07T09:01:44;101319.00;;;24.03;100.00
46718;BME280;32448;44.960;-0.698;2023-09-07T09:04:12;101323.06;;;24.16;100.00
46718;BME280;32448;44.960;-0.698;2023-09-07T09:06:39;101323.91;;;24.18;100.00
46718;BME280;32448;44.960;-0.698;2023-09-07T09:09:06;101319.22;;;24.26;100.00
46718;BME280;32448;44.960;-0.698;2023-09-07T09:11:34;101316.34;;;24.32;100.00
46718;BME280;32448;44.960;-0.698;2023-09-07T09:14:04;101315.25;;;24.39;100.00
46718;BME280;32448;44.960;-0.698;2023-09-07T09:16:32;101320.44;;;24.44;100.00
46718;BME280;32448;44.960;-0.698;2023-09-07T09:18:59;101319.00;;;24.61;100.00
46718;BME280;32448;44.960;-0.698;2023-09-07T09:21:27;101314.19;;;24.73;100.00
46718;BME280;32448;44.960;-0.698;2023-09-07T09:23:55;101316.00;;;24.71;100.00
46718;BME280;32448;44.960;-0.698;2023-09-07T09:26:22;101310.97;;;24.88;100.00
46718;BME280;32448;44.960;-0.698;2023-09-07T09:28:55;101315.13;;;24.98;100.00
46718;BME280;32448;44.960;-0.698;2023-09-07T09:31:23;101315.84;;;25.03;100.00
46718;BME280;32448;44.960;-0.698;2023-09-07T09:33:52;101318.19;;;25.12;100.00
46718;BME280;32448;44.960;-0.698;2023-09-07T09:36:20;101314.50;;;25.16;100.00
46718;BME280;32448;44.960;-0.698;2023-09-07T09:38:51;101317.72;;;25.26;100.00
46718;BME280;32448;44.960;-0.698;2023-09-07T09:41:20;101312.28;;;25.29;100.00
46718;BME280;32448;44.960;-0.698;2023-09-07T09:43:48;101315.50;;;25.38;100.00
46718;BME280;32448;44.960;-0.698;2023-09-07T09:46:19;101306.16;;;25.50;100.00
46718;BME280;32448;44.960;-0.698;2023-09-07T09:48:47;101308.66;;;25.55;100.00
46718;BME280;32448;44.960;-0.698;2023-09-07T09:51:14;101304.78;;;25.63;100.00
46718;BME280;32448;44.960;-0.698;2023-09-07T09:53:42;101306.53;;;25.64;100.00
46718;BME280;32448;44.960;-0.698;2023-09-07T09:56:09;101300.66;;;25.78;100.00
46718;BME280;32448;44.960;-0.698;2023-09-07T09:58:37;101301.25;;;25.86;100.00
46718;BME280;32448;44.960;-0.698;2023-09-07T10:01:04;101295.56;;;25.95;100.00
46718;BME280;32448;44.960;-0.698;2023-09-07T10:08:28;101302.94;;;26.35;100.00
46718;BME280;32448;44.960;-0.698;2023-09-07T10:10:56;101302.38;;;26.49;100.00
46718;BME280;32448;44.960;-0.698;2023-09-07T10:13:30;101306.88;;;26.49;100.00
46718;BME280;32448;44.960;-0.698;2023-09-07T10:16:01;101310.00;;;26.60;100.00
46718;BME280;32448;44.960;-0.698;2023-09-07T10:18:35;101291.47;;;26.54;100.00
46718;BME280;32448;44.960;-0.698;2023-09-07T10:21:02;101293.53;;;26.69;100.00
46718;BME280;32448;44.960;-0.698;2023-09-07T10:23:42;101302.88;;;26.80;100.00
46718;BME280;32448;44.960;-0.698;2023-09-07T10:26:17;101302.41;;;26.91;100.00
46718;BME280;32448;44.960;-0.698;2023-09-07T10:28:44;101297.03;;;26.93;100.00
46718;BME280;32448;44.960;-0.698;2023-09-07T10:33:42;101300.31;;;27.19;100.00
46718;BME280;32448;44.960;-0.698;2023-09-07T10:36:09;101298.84;;;27.33;100.00
46718;BME280;32448;44.960;-0.698;2023-09-07T10:38:46;101292.19;;;27.41;100.00
46718;BME280;32448;44.960;-0.698;2023-09-07T10:41:14;101282.59;;;27.56;100.00
46718;BME280;32448;44.960;-0.698;2023-09-07T10:43:48;101290.59;;;27.58;100.00
46718;BME280;32448;44.960;-0.698;2023-09-07T10:46:18;101290.53;;;27.59;100.00
46718;BME280;32448;44.960;-0.698;2023-09-07T10:48:46;101289.75;;;27.76;100.00
46718;BME280;32448;44.960;-0.698;2023-09-07T10:51:15;101281.84;;;27.92;100.00
46718;BME280;32448;44.960;-0.698;2023-09-07T10:53:42;101278.72;;;28.01;100.00
46718;BME280;32448;44.960;-0.698;2023-09-07T10:56:09;101276.69;;;28.06;100.00
46718;BME280;32448;44.960;-0.698;2023-09-07T10:58:36;101272.78;;;28.13;100.00
46718;BME280;32448;44.960;-0.698;2023-09-07T11:01:09;101273.31;;;28.21;100.00
46718;BME280;32448;44.960;-0.698;2023-09-07T11:03:36;101278.69;;;28.21;100.00
46718;BME280;32448;44.960;-0.698;2023-09-07T11:08:34;101267.69;;;28.44;100.00
46718;BME280;32448;44.960;-0.698;2023-09-07T11:11:02;101263.03;;;28.48;100.00
46718;BME280;32448;44.960;-0.698;2023-09-07T11:13:29;101258.84;;;28.59;100.00
46718;BME280;32448;44.960;-0.698;2023-09-07T11:15:58;101257.19;;;28.74;100.00
46718;BME280;32448;44.960;-0.698;2023-09-07T11:18:25;101259.88;;;28.93;100.00
46718;BME280;32448;44.960;-0.698;2023-09-07T11:20:53;101261.19;;;29.02;100.00
46718;BME280;32448;44.960;-0.698;2023-09-07T11:23:20;101252.56;;;29.12;100.00
46718;BME280;32448;44.960;-0.698;2023-09-07T11:25:48;101253.44;;;29.13;100.00
46718;BME280;32448;44.960;-0.698;2023-09-07T11:28:18;101250.19;;;29.06;100.00
46718;BME280;32448;44.960;-0.698;2023-09-07T11:30:52;101253.81;;;29.22;100.00
46718;BME280;32448;44.960;-0.698;2023-09-07T11:33:20;101256.00;;;29.31;100.00
46718;BME280;32448;44.960;-0.698;2023-09-07T11:35:48;101255.63;;;29.39;100.00
46718;BME280;32448;44.960;-0.698;2023-09-07T11:38:15;101250.13;;;29.58;100.00
46718;BME280;32448;44.960;-0.698;2023-09-07T11:40:43;101246.22;;;29.48;100.00
46718;BME280;32448;44.960;-0.698;2023-09-07T11:43:12;101238.59;;;29.39;100.00
46718;BME280;32448;44.960;-0.698;2023-09-07T11:45:40;101237.84;;;29.52;100.00
46718;BME280;32448;44.960;-0.698;2023-09-07T11:48:08;101232.94;;;29.76;100.00
46718;BME280;32448;44.960;-0.698;2023-09-07T11:50:35;101222.00;;;29.79;100.00
46718;BME280;32448;44.960;-0.698;2023-09-07T11:53:03;101220.34;;;29.77;100.00
46718;BME280;32448;44.960;-0.698;2023-09-07T11:55:30;101214.31;;;29.72;100.00
46718;BME280;32448;44.960;-0.698;2023-09-07T11:57:58;101209.81;;;29.72;100.00
46718;BME280;32448;44.960;-0.698;2023-09-07T12:00:25;101205.75;;;29.96;100.00
46718;BME280;32448;44.960;-0.698;2023-09-07T12:02:52;101206.22;;;30.04;100.00
46718;BME280;32448;44.960;-0.698;2023-09-07T12:05:19;101191.34;;;30.13;100.00
46718;BME280;32448;44.960;-0.698;2023-09-07T12:07:46;101192.00;;;30.32;100.00
46718;BME280;32448;44.960;-0.698;2023-09-07T12:10:13;101197.63;;;30.44;100.00
46718;BME280;32448;44.960;-0.698;2023-09-07T12:12:41;101197.22;;;30.35;100.00
46718;BME280;32448;44.960;-0.698;2023-09-07T12:15:08;101208.50;;;30.42;100.00
46718;BME280;32448;44.960;-0.698;2023-09-07T12:17:35;101201.91;;;30.48;100.00
46718;BME280;32448;44.960;-0.698;2023-09-07T12:20:02;101203.22;;;30.56;100.00
46718;BME280;32448;44.960;-0.698;2023-09-07T12:22:30;101193.59;;;30.66;99.70
46718;BME280;32448;44.960;-0.698;2023-09-07T12:24:57;101198.84;;;30.84;100.00
46718;BME280;32448;44.960;-0.698;2023-09-07T12:27:39;101198.09;;;30.96;95.20
46718;BME280;32448;44.960;-0.698;2023-09-07T12:30:19;101204.94;;;30.87;95.34
46718;BME280;32448;44.960;-0.698;2023-09-07T12:32:48;101200.22;;;30.91;95.42
46718;BME280;32448;44.960;-0.698;2023-09-07T12:35:15;101202.72;;;30.94;100.00
46718;BME280;32448;44.960;-0.698;2023-09-07T12:37:42;101191.91;;;30.94;97.49
46718;BME280;32448;44.960;-0.698;2023-09-07T12:40:10;101199.25;;;30.92;85.94
46718;BME280;32448;44.960;-0.698;2023-09-07T12:42:40;101194.72;;;31.06;94.42
46718;BME280;32448;44.960;-0.698;2023-09-07T12:45:08;101201.06;;;31.21;98.49